createdAt,value
2017-11-11T00:06:19.298Z,6.77
2017-11-11T00:16:19.275Z,6.41
2017-11-11T00:26:19.695Z,6.33
2017-11-11T00:36:19.272Z,6.04
2017-11-11T00:46:19.384Z,6.11
2017-11-11T00:56:19.662Z,6.18
2017-11-11T01:06:19.342Z,6.3
2017-11-11T01:16:19.377Z,6.33
2017-11-11T01:26:19.407Z,6
2017-11-11T01:36:19.462Z,5.92
2017-11-11T01:46:19.362Z,5.6
2017-11-11T01:56:19.721Z,5.55
2017-11-11T02:06:19.397Z,5.71
2017-11-11T02:16:19.362Z,5.83
2017-11-11T02:26:19.751Z,5.89
2017-11-11T02:36:19.378Z,6.25
2017-11-11T02:46:19.422Z,6.25
2017-11-11T02:56:19.406Z,6.1
2017-11-11T03:06:19.445Z,6.16
2017-11-11T03:16:19.399Z,6.21
2017-11-11T03:26:19.490Z,5.82
2017-11-11T03:36:19.462Z,5.6
2017-11-11T03:46:19.478Z,5.45
2017-11-11T03:56:19.776Z,5.41
2017-11-11T04:06:19.522Z,5.45
2017-11-11T04:16:19.476Z,5.38
2017-11-11T04:26:19.458Z,5.57
2017-11-11T04:36:19.473Z,5.73
2017-11-11T04:46:19.444Z,6.09
2017-11-11T04:56:19.507Z,6.41
2017-11-11T05:06:19.468Z,6.53
2017-11-11T05:16:19.584Z,6.4
2017-11-11T05:26:19.795Z,6.09
2017-11-11T05:36:19.542Z,5.95
2017-11-11T05:46:19.529Z,5.78
2017-11-11T05:56:19.625Z,5.66
2017-11-11T06:06:19.529Z,5.95
2017-11-11T06:16:19.641Z,6.1
2017-11-11T06:26:19.773Z,6.13
2017-11-11T06:36:19.536Z,6.33
2017-11-11T06:46:19.574Z,6.4
2017-11-11T06:56:19.543Z,6.32
2017-11-11T07:06:19.642Z,6.61
2017-11-11T07:16:19.572Z,6.79
2017-11-11T07:26:19.654Z,6.9
2017-11-11T07:36:19.604Z,6.69
2017-11-11T07:46:19.665Z,6.71
2017-11-11T07:56:19.639Z,6.95
2017-11-11T08:06:19.726Z,7.05
2017-11-11T08:16:19.659Z,7.16
2017-11-11T08:26:19.881Z,7.26
2017-11-11T08:36:19.704Z,7.63
2017-11-11T08:46:19.648Z,7.81
2017-11-11T08:56:19.680Z,7.89
2017-11-11T09:06:19.738Z,8.02
2017-11-11T09:16:19.700Z,8.03
2017-11-11T09:26:19.773Z,8.15
2017-11-11T09:36:19.713Z,8.04
2017-11-11T09:46:19.691Z,8.02
2017-11-11T09:56:19.687Z,8.12
2017-11-11T10:06:19.707Z,8.15
2017-11-11T10:16:19.713Z,8.02
2017-11-11T10:26:19.853Z,7.84
2017-11-11T10:36:19.830Z,8.03
2017-11-11T10:46:19.760Z,8
2017-11-11T10:56:19.902Z,8.03
2017-11-11T11:06:19.800Z,8.42
2017-11-11T11:16:20.147Z,8.54
2017-11-11T11:26:19.860Z,8.69
2017-11-11T11:36:19.886Z,8.66
2017-11-11T11:46:20.898Z,8.53
2017-11-11T11:56:19.950Z,8.55
2017-11-11T12:06:19.879Z,8.57
2017-11-11T12:16:19.931Z,8.42
2017-11-11T12:26:19.956Z,8.51
2017-11-11T12:36:19.876Z,8.63
2017-11-11T12:46:19.925Z,8.78
2017-11-11T12:56:20.196Z,8.81
2017-11-11T13:06:19.882Z,8.75
2017-11-11T13:16:19.876Z,9.04
2017-11-11T13:26:19.897Z,9.31
2017-11-11T13:36:19.913Z,9.39
2017-11-11T13:46:19.857Z,8.94
2017-11-11T13:56:20.107Z,8.5
2017-11-11T14:06:19.965Z,8.29
2017-11-11T14:16:20.034Z,8.2
2017-11-11T14:26:19.936Z,7.85
2017-11-11T14:36:19.943Z,7.69
2017-11-11T14:46:20.047Z,7.47
2017-11-11T14:56:20.184Z,7.49
2017-11-11T15:06:20.235Z,7.23
2017-11-11T15:16:19.945Z,7.2
2017-11-11T15:26:20.688Z,7.19
2017-11-11T15:36:19.988Z,6.91
2017-11-11T15:46:20.167Z,6.91
2017-11-11T15:56:20.135Z,6.61
2017-11-11T16:06:20.054Z,6.25
2017-11-11T16:16:20.189Z,6.21
2017-11-11T16:26:20.063Z,5.92
2017-11-11T16:36:20.173Z,5.85
2017-11-11T16:46:20.208Z,5.89
2017-11-11T16:56:20.054Z,5.85
2017-11-11T17:06:20.076Z,5.7
2017-11-11T17:16:20.065Z,5.91
2017-11-11T17:26:21.640Z,5.85
2017-11-11T17:36:20.193Z,5.49
2017-11-11T17:46:20.386Z,5.5
2017-11-11T17:56:20.406Z,5.35
2017-11-11T18:06:20.266Z,5.19
2017-11-11T18:16:20.104Z,5.35
2017-11-11T18:26:20.369Z,5.37
2017-11-11T18:36:20.580Z,5.38
2017-11-11T18:46:20.275Z,5.31
2017-11-11T18:56:20.141Z,5.4
2017-11-11T19:06:20.159Z,5.56
2017-11-11T19:16:21.917Z,5.59
2017-11-11T19:26:21.811Z,5.52
2017-11-11T19:36:21.427Z,5.63
2017-11-11T19:46:20.438Z,5.74
2017-11-11T19:56:20.952Z,5.86
2017-11-11T20:06:21.135Z,5.7
2017-11-11T20:16:21.297Z,5.68
2017-11-11T20:26:21.404Z,5.59
2017-11-11T20:36:21.459Z,5.46
2017-11-11T20:46:20.812Z,5.32
2017-11-11T20:56:21.211Z,5.31
2017-11-11T21:06:21.245Z,5.34
2017-11-11T21:16:20.256Z,5.17
2017-11-11T21:26:21.532Z,5.22
2017-11-11T21:36:21.144Z,5.02
2017-11-11T21:46:20.977Z,4.94
2017-11-11T21:56:20.328Z,4.62
2017-11-11T22:06:20.673Z,4.5
2017-11-11T22:16:20.556Z,4.42
2017-11-11T22:26:20.316Z,4.5
2017-11-11T22:36:20.991Z,4.39
2017-11-11T22:46:22.162Z,4.24
2017-11-11T22:56:20.316Z,4.06
2017-11-11T23:06:20.345Z,4.01
2017-11-11T23:16:20.365Z,4.01
2017-11-11T23:26:20.346Z,3.65
2017-11-11T23:36:20.325Z,3.68
2017-11-11T23:46:20.368Z,3.62
2017-11-11T23:56:20.394Z,3.52
